Round Rock, Arizona
Current Conditions -  °F | °C
As of 6:53 PM on Tuesday 25 Nov 2014 (Local Time) from KFMN Reporting Station
Clear Clear  
Wind Chill: 27°   Ceiling: Unl
Heat Index: 34°   Visibility: 10mi
Dew Point:   Wind: 9mph
Humidity: 27%   Direction: 260°W
Pressure: 30.3"   Gusts: NA
Location:  36.51°N, 109.47°W
Report Text: KFMN 260153Z 26008KT 10SM CLR 01/M16 A3030 RMK AO2 SLP299 T00111161
Loading
Personal Weather Stations






























Interactive Weather Map New forecast layout! Learn more

10-Day Weather Forecast

Advertisements
Track Severe Weather on mobile